Rhourd El Adra — 7TBS — position and weather

sailwx.info

Track history (hours):
 
Tides and Currents Weather Stations Pressure Air Temp Water Temp Dewpoint Dewpoint Depression Visibility Wind Speed Wind Dir Waves Ship Positions

Rhourd El Adra

Last reported at 2016-May-30 10:33 UTC. Time now 2016-May-30 10:41 UTC.
Position N 43°35' E 010°19'.

Length 156 m; draft 8.6 m.

Type: Ship (hazmat cat C). MMSI: 605026210.

Date/timePositionNaut miles runAvg speedWind from/ knotsBaromVisibWave heightAir tempDewpointWater temp
2016-May-30 10:33N 43°35' E 010°19'0 0.0
2016-May-30 09:33N 43°35' E 010°19'0 0.0
2016-May-30 08:33N 43°35' E 010°19'0 0.0
2016-May-30 07:33N 43°35' E 010°19'0 0.0
2016-May-30 06:33N 43°35' E 010°19'0 0.0
2016-May-30 05:33N 43°35' E 010°19'0 0.0
2016-May-30 04:33N 43°35' E 010°19'0 0.0
2016-May-30 03:33N 43°35' E 010°19'0 0.0
2016-May-30 02:33N 43°35' E 010°19'0 0.0
2016-May-30 01:33N 43°35' E 010°19'0 0.0
2016-May-30 00:33N 43°35' E 010°19'0 0.0
2016-May-29 23:33N 43°35' E 010°19'0 0.0
2016-May-29 22:33N 43°35' E 010°19'0 0.0
2016-May-29 21:33N 43°35' E 010°19'0 0.0
2016-May-29 20:33N 43°35' E 010°19'0 0.0
2016-May-29 19:33N 43°35' E 010°19'0 0.0
2016-May-29 18:33N 43°35' E 010°19'0 0.0
2016-May-29 17:33N 43°35' E 010°19'0 0.0
2016-May-29 16:33N 43°35' E 010°19'0 0.0
2016-May-29 15:33N 43°35' E 010°19'0 0.0
2016-May-29 14:33N 43°35' E 010°19'2 2.4
2016-May-29 13:33N 43°33' E 010°17'4 3.7
2016-May-29 12:33N 43°29' E 010°16'1 0.7
2016-May-29 11:32N 43°30' E 010°16'0 0.3
2016-May-29 10:32N 43°30' E 010°16'0 0.0
2016-May-29 09:32N 43°30' E 010°16'0 0.0
2016-May-29 08:33N 43°30' E 010°16'0 0.0
2016-May-29 07:33N 43°30' E 010°16'0 0.1
2016-May-29 06:33N 43°30' E 010°16'0 0.0
2016-May-29 05:33N 43°30' E 010°16'0 0.0
2016-May-29 04:33N 43°30' E 010°16'0 0.0
2016-May-29 03:33N 43°30' E 010°16'0 0.0
2016-May-29 02:33N 43°30' E 010°16'0 0.1
2016-May-29 01:33N 43°30' E 010°16'0 0.0
2016-May-29 00:33N 43°30' E 010°16'0 0.1
2016-May-28 23:33N 43°30' E 010°16'0 0.0
2016-May-28 22:33N 43°30' E 010°16'0 0.0
2016-May-28 21:33N 43°30' E 010°16'0 0.0
2016-May-28 20:33N 43°30' E 010°16'0 0.0
2016-May-28 19:33N 43°30' E 010°16'0 0.0
2016-May-28 18:33N 43°30' E 010°16'0 0.0
2016-May-28 17:33N 43°30' E 010°16'0 0.0
2016-May-28 16:33N 43°30' E 010°16'0 0.0
2016-May-28 15:33N 43°30' E 010°16'0 0.0
2016-May-28 14:33N 43°30' E 010°16'0 0.0
2016-May-28 13:34N 43°30' E 010°16'0 0.0
2016-May-28 12:33N 43°30' E 010°16'0 0.0
2016-May-28 11:33N 43°30' E 010°16'0 0.5
2016-May-28 10:33N 43°29' E 010°16'1111.0
2016-May-28 09:33N 43°22' E 010°05'1414.5
2016-May-28 08:33N 43°16' E 009°47'1615.5
2016-May-28 07:33N 43°13' E 009°26'1514.9
2016-May-28 06:33N 43°08' E 009°06'1615.7
2016-May-28 05:33N 42°57' E 008°51'1616.1
2016-May-28 04:33N 42°45' E 008°36'1616.3
2016-May-28 03:33N 42°33' E 008°22'1514.9
2016-May-28 02:33N 42°19' E 008°15'1615.8
2016-May-28 01:33N 42°03' E 008°19'282 7.0
2016-May-26 09:14N 38°43' E 003°58'1615.4
2016-May-26 08:11N 38°33' E 003°42'1015.1
2016-May-26 07:33N 38°28' E 003°31'1614.5
2016-May-26 06:29N 38°17' E 003°16'1314.6
2016-May-26 05:33N 38°09' E 003°03'1514.8
2016-May-26 04:33N 37°60' E 002°48'1514.8
2016-May-26 03:32N 37°50' E 002°34'1414.7
2016-May-26 02:33N 37°41' E 002°19'1514.6
2016-May-26 01:33N 37°32' E 002°05'4815.4
2016-May-25 22:27N 37°03' E 001°18'1415.2
2016-May-25 21:32N 36°54' E 001°04'9114.4
2016-May-25 15:14N 35°49' W 000°15'6 0.2
2016-May-24 06:13N 35°54' W 000°13'811.9
2016-May-24 05:33N 36°02' W 000°12'1414.0
2016-May-24 04:33N 36°16' W 000°08'1413.3
2016-May-24 03:30N 36°19' E 000°09'1313.5
2016-May-24 02:33N 36°23' E 000°24'1413.7
2016-May-24 01:31N 36°30' E 000°40'4213.8
2016-May-23 22:29N 36°43' E 001°29'37514.4
2016-May-22 20:26N 38°35' E 009°01'1516.6
2016-May-22 19:34N 38°41' E 009°17'1616.2
2016-May-22 18:33N 38°48' E 009°36'1616.2
2016-May-22 17:33N 38°56' E 009°55'6516.2
2016-May-22 13:33N 39°25' E 011°09'1616.2
2016-May-22 12:33N 39°33' E 011°27'1615.8
2016-May-22 11:34N 39°41' E 011°45'1715.7
2016-May-22 10:30N 39°49' E 012°05'1516.0
2016-May-22 09:33N 39°56' E 012°22'1616.1
2016-May-22 08:33N 40°04' E 012°40'1616.0
2016-May-22 07:33N 40°11' E 012°58'1615.9
2016-May-22 06:33N 40°19' E 013°17'1615.9
2016-May-22 05:34N 40°26' E 013°35'1616.0
2016-May-22 04:34N 40°34' E 013°54'1615.9
2016-May-22 03:34N 40°43' E 014°11'9 8.8
2016-May-22 02:33N 40°50' E 014°18'0 0.0
2016-May-22 01:33N 40°50' E 014°18'0 0.0
2016-May-22 00:33N 40°50' E 014°18'0 0.0
2016-May-21 23:33N 40°50' E 014°18'0 0.0
2016-May-21 22:33N 40°50' E 014°18'0 0.0
2016-May-21 21:33N 40°50' E 014°18'0 0.0
2016-May-21 20:33N 40°50' E 014°18'0 0.0
2016-May-21 19:33N 40°50' E 014°18'0 0.0
2016-May-21 18:33N 40°50' E 014°18'0 0.0
2016-May-21 17:33N 40°50' E 014°18'0 0.0
2016-May-21 16:33N 40°50' E 014°18'0 0.0
2016-May-21 15:33N 40°50' E 014°18'0 0.0
2016-May-21 14:33N 40°50' E 014°18'0 0.0
2016-May-21 13:33N 40°50' E 014°18'0 0.0
2016-May-21 12:33N 40°50' E 014°18'0 0.0
2016-May-21 11:33N 40°50' E 014°18'0 0.0
2016-May-21 10:33N 40°50' E 014°18'0 0.0
2016-May-21 09:33N 40°50' E 014°18'0 0.0
2016-May-21 08:33N 40°50' E 014°18'0 0.0
2016-May-21 07:33N 40°50' E 014°18'0 0.0
2016-May-21 06:33N 40°50' E 014°18'0 0.0
2016-May-21 05:33N 40°50' E 014°18'0 0.0
2016-May-21 04:29N 40°50' E 014°18'0 0.0
2016-May-21 03:33N 40°50' E 014°18'0 0.0
2016-May-21 02:32N 40°50' E 014°18'0 0.0
2016-May-21 01:33N 40°50' E 014°18'0 0.0
2016-May-21 00:33N 40°50' E 014°18'0 0.0
2016-May-20 23:33N 40°50' E 014°18'0 0.0
2016-May-20 22:33N 40°50' E 014°18'0 0.0
2016-May-20 21:33N 40°50' E 014°18'0 0.0
2016-May-20 20:33N 40°50' E 014°18'0 0.0
2016-May-20 19:33N 40°50' E 014°18'0 0.0
2016-May-20 18:33N 40°50' E 014°18'0 0.0
2016-May-20 17:33N 40°50' E 014°18'0 0.0
2016-May-20 16:33N 40°50' E 014°18'0 0.0
2016-May-20 15:33N 40°50' E 014°18'0 0.0
2016-May-20 14:33N 40°50' E 014°18'0 0.0
2016-May-20 13:33N 40°50' E 014°18'0 0.0
2016-May-20 12:33N 40°50' E 014°18'0 0.0
2016-May-20 11:29N 40°50' E 014°18'0 0.0
2016-May-20 10:33N 40°50' E 014°18'  
Track history (hours):
 
Tides and Currents Weather Stations Pressure Air Temp Water Temp Dewpoint Dewpoint Depression Visibility Wind Speed Wind Dir Waves Ship Positions

Rhourd El Adra

Last reported at 2016-May-30 10:33 UTC. Time now 2016-May-30 10:41 UTC.
Position N 43°35' E 010°19'.

Length 156 m; draft 8.6 m.

Type: Ship (hazmat cat C). MMSI: 605026210.

Date/timePositionNaut miles runAvg speedWind from/ knotsBaromVisibWave heightAir tempDewpointWater temp
2016-May-30 10:33N 43°35' E 010°19'0 0.0
2016-May-30 09:33N 43°35' E 010°19'0 0.0
2016-May-30 08:33N 43°35' E 010°19'0 0.0
2016-May-30 07:33N 43°35' E 010°19'0 0.0
2016-May-30 06:33N 43°35' E 010°19'0 0.0
2016-May-30 05:33N 43°35' E 010°19'0 0.0
2016-May-30 04:33N 43°35' E 010°19'0 0.0
2016-May-30 03:33N 43°35' E 010°19'0 0.0
2016-May-30 02:33N 43°35' E 010°19'0 0.0
2016-May-30 01:33N 43°35' E 010°19'0 0.0
2016-May-30 00:33N 43°35' E 010°19'0 0.0
2016-May-29 23:33N 43°35' E 010°19'0 0.0
2016-May-29 22:33N 43°35' E 010°19'0 0.0
2016-May-29 21:33N 43°35' E 010°19'0 0.0
2016-May-29 20:33N 43°35' E 010°19'0 0.0
2016-May-29 19:33N 43°35' E 010°19'0 0.0
2016-May-29 18:33N 43°35' E 010°19'0 0.0
2016-May-29 17:33N 43°35' E 010°19'0 0.0
2016-May-29 16:33N 43°35' E 010°19'0 0.0
2016-May-29 15:33N 43°35' E 010°19'0 0.0
2016-May-29 14:33N 43°35' E 010°19'2 2.4
2016-May-29 13:33N 43°33' E 010°17'4 3.7
2016-May-29 12:33N 43°29' E 010°16'1 0.7
2016-May-29 11:32N 43°30' E 010°16'0 0.3
2016-May-29 10:32N 43°30' E 010°16'0 0.0
2016-May-29 09:32N 43°30' E 010°16'0 0.0
2016-May-29 08:33N 43°30' E 010°16'0 0.0
2016-May-29 07:33N 43°30' E 010°16'0 0.1
2016-May-29 06:33N 43°30' E 010°16'0 0.0
2016-May-29 05:33N 43°30' E 010°16'0 0.0
2016-May-29 04:33N 43°30' E 010°16'0 0.0
2016-May-29 03:33N 43°30' E 010°16'0 0.0
2016-May-29 02:33N 43°30' E 010°16'0 0.1
2016-May-29 01:33N 43°30' E 010°16'0 0.0
2016-May-29 00:33N 43°30' E 010°16'0 0.1
2016-May-28 23:33N 43°30' E 010°16'0 0.0
2016-May-28 22:33N 43°30' E 010°16'0 0.0
2016-May-28 21:33N 43°30' E 010°16'0 0.0
2016-May-28 20:33N 43°30' E 010°16'0 0.0
2016-May-28 19:33N 43°30' E 010°16'0 0.0
2016-May-28 18:33N 43°30' E 010°16'0 0.0
2016-May-28 17:33N 43°30' E 010°16'0 0.0
2016-May-28 16:33N 43°30' E 010°16'0 0.0
2016-May-28 15:33N 43°30' E 010°16'0 0.0
2016-May-28 14:33N 43°30' E 010°16'0 0.0
2016-May-28 13:34N 43°30' E 010°16'0 0.0
2016-May-28 12:33N 43°30' E 010°16'0 0.0
2016-May-28 11:33N 43°30' E 010°16'0 0.5
2016-May-28 10:33N 43°29' E 010°16'1111.0
2016-May-28 09:33N 43°22' E 010°05'1414.5
2016-May-28 08:33N 43°16' E 009°47'1615.5
2016-May-28 07:33N 43°13' E 009°26'1514.9
2016-May-28 06:33N 43°08' E 009°06'1615.7
2016-May-28 05:33N 42°57' E 008°51'1616.1
2016-May-28 04:33N 42°45' E 008°36'1616.3
2016-May-28 03:33N 42°33' E 008°22'1514.9
2016-May-28 02:33N 42°19' E 008°15'1615.8
2016-May-28 01:33N 42°03' E 008°19'282 7.0
2016-May-26 09:14N 38°43' E 003°58'1615.4
2016-May-26 08:11N 38°33' E 003°42'1015.1
2016-May-26 07:33N 38°28' E 003°31'1614.5
2016-May-26 06:29N 38°17' E 003°16'1314.6
2016-May-26 05:33N 38°09' E 003°03'1514.8
2016-May-26 04:33N 37°60' E 002°48'1514.8
2016-May-26 03:32N 37°50' E 002°34'1414.7
2016-May-26 02:33N 37°41' E 002°19'1514.6
2016-May-26 01:33N 37°32' E 002°05'4815.4
2016-May-25 22:27N 37°03' E 001°18'1415.2
2016-May-25 21:32N 36°54' E 001°04'9114.4
2016-May-25 15:14N 35°49' W 000°15'6 0.2
2016-May-24 06:13N 35°54' W 000°13'811.9
2016-May-24 05:33N 36°02' W 000°12'1414.0
2016-May-24 04:33N 36°16' W 000°08'1413.3
2016-May-24 03:30N 36°19' E 000°09'1313.5
2016-May-24 02:33N 36°23' E 000°24'1413.7
2016-May-24 01:31N 36°30' E 000°40'4213.8
2016-May-23 22:29N 36°43' E 001°29'37514.4
2016-May-22 20:26N 38°35' E 009°01'1516.6
2016-May-22 19:34N 38°41' E 009°17'1616.2
2016-May-22 18:33N 38°48' E 009°36'1616.2
2016-May-22 17:33N 38°56' E 009°55'6516.2
2016-May-22 13:33N 39°25' E 011°09'1616.2
2016-May-22 12:33N 39°33' E 011°27'1615.8
2016-May-22 11:34N 39°41' E 011°45'1715.7
2016-May-22 10:30N 39°49' E 012°05'1516.0
2016-May-22 09:33N 39°56' E 012°22'1616.1
2016-May-22 08:33N 40°04' E 012°40'1616.0
2016-May-22 07:33N 40°11' E 012°58'1615.9
2016-May-22 06:33N 40°19' E 013°17'1615.9
2016-May-22 05:34N 40°26' E 013°35'1616.0
2016-May-22 04:34N 40°34' E 013°54'1615.9
2016-May-22 03:34N 40°43' E 014°11'9 8.8
2016-May-22 02:33N 40°50' E 014°18'0 0.0
2016-May-22 01:33N 40°50' E 014°18'0 0.0
2016-May-22 00:33N 40°50' E 014°18'0 0.0
2016-May-21 23:33N 40°50' E 014°18'0 0.0
2016-May-21 22:33N 40°50' E 014°18'0 0.0
2016-May-21 21:33N 40°50' E 014°18'0 0.0
2016-May-21 20:33N 40°50' E 014°18'0 0.0
2016-May-21 19:33N 40°50' E 014°18'0 0.0
2016-May-21 18:33N 40°50' E 014°18'0 0.0
2016-May-21 17:33N 40°50' E 014°18'0 0.0
2016-May-21 16:33N 40°50' E 014°18'0 0.0
2016-May-21 15:33N 40°50' E 014°18'0 0.0
2016-May-21 14:33N 40°50' E 014°18'0 0.0
2016-May-21 13:33N 40°50' E 014°18'0 0.0
2016-May-21 12:33N 40°50' E 014°18'0 0.0
2016-May-21 11:33N 40°50' E 014°18'0 0.0
2016-May-21 10:33N 40°50' E 014°18'0 0.0
2016-May-21 09:33N 40°50' E 014°18'0 0.0
2016-May-21 08:33N 40°50' E 014°18'0 0.0
2016-May-21 07:33N 40°50' E 014°18'0 0.0
2016-May-21 06:33N 40°50' E 014°18'0 0.0
2016-May-21 05:33N 40°50' E 014°18'0 0.0
2016-May-21 04:29N 40°50' E 014°18'0 0.0
2016-May-21 03:33N 40°50' E 014°18'0 0.0
2016-May-21 02:32N 40°50' E 014°18'0 0.0
2016-May-21 01:33N 40°50' E 014°18'0 0.0
2016-May-21 00:33N 40°50' E 014°18'0 0.0
2016-May-20 23:33N 40°50' E 014°18'0 0.0
2016-May-20 22:33N 40°50' E 014°18'0 0.0
2016-May-20 21:33N 40°50' E 014°18'0 0.0
2016-May-20 20:33N 40°50' E 014°18'0 0.0
2016-May-20 19:33N 40°50' E 014°18'0 0.0
2016-May-20 18:33N 40°50' E 014°18'0 0.0
2016-May-20 17:33N 40°50' E 014°18'0 0.0
2016-May-20 16:33N 40°50' E 014°18'0 0.0
2016-May-20 15:33N 40°50' E 014°18'0 0.0
2016-May-20 14:33N 40°50' E 014°18'0 0.0
2016-May-20 13:33N 40°50' E 014°18'0 0.0
2016-May-20 12:33N 40°50' E 014°18'0 0.0
2016-May-20 11:29N 40°50' E 014°18'0 0.0
2016-May-20 10:33N 40°50' E 014°18'  

Dump ship's entire track history